sensor_id;sensor_type;location;lat;lon;timestamp;P1;durP1;ratioP1;P2;durP2;ratioP2
53618;SDS011;68717;53.040;18.488;2023-07-31T00:00:11;6.35;;;2.80;;
53618;SDS011;68717;53.040;18.488;2023-07-31T00:00:43;7.05;;;2.67;;
53618;SDS011;68717;53.040;18.488;2023-07-31T00:01:12;5.75;;;2.60;;
53618;SDS011;68717;53.040;18.488;2023-07-31T00:01:25;6.05;;;2.70;;
53618;SDS011;68717;53.040;18.488;2023-07-31T00:01:39;6.07;;;2.60;;
53618;SDS011;68717;53.040;18.488;2023-07-31T00:01:51;5.80;;;2.60;;
53618;SDS011;68717;53.040;18.488;2023-07-31T00:02:04;5.72;;;2.70;;
53618;SDS011;68717;53.040;18.488;2023-07-31T00:02:17;5.43;;;2.65;;
53618;SDS011;68717;53.040;18.488;2023-07-31T00:02:30;5.90;;;2.80;;
53618;SDS011;68717;53.040;18.488;2023-07-31T00:02:42;6.43;;;2.80;;
53618;SDS011;68717;53.040;18.488;2023-07-31T00:02:55;6.18;;;2.80;;
53618;SDS011;68717;53.040;18.488;2023-07-31T00:03:10;6.20;;;2.78;;
53618;SDS011;68717;53.040;18.488;2023-07-31T00:03:23;6.25;;;2.70;;
53618;SDS011;68717;53.040;18.488;2023-07-31T00:03:35;6.25;;;2.70;;
53618;SDS011;68717;53.040;18.488;2023-07-31T00:03:49;5.60;;;2.60;;
53618;SDS011;68717;53.040;18.488;2023-07-31T00:04:02;5.10;;;2.60;;
53618;SDS011;68717;53.040;18.488;2023-07-31T00:04:15;5.80;;;2.72;;
53618;SDS011;68717;53.040;18.488;2023-07-31T00:04:28;5.95;;;2.83;;
53618;SDS011;68717;53.040;18.488;2023-07-31T00:04:40;6.20;;;2.92;;
53618;SDS011;68717;53.040;18.488;2023-07-31T00:04:53;6.60;;;3.00;;
53618;SDS011;68717;53.040;18.488;2023-07-31T00:05:06;6.32;;;3.10;;
53618;SDS011;68717;53.040;18.488;2023-07-31T00:05:21;6.20;;;3.00;;
53618;SDS011;68717;53.040;18.488;2023-07-31T00:05:34;6.60;;;3.00;;
53618;SDS011;68717;53.040;18.488;2023-07-31T00:05:46;6.25;;;3.08;;
53618;SDS011;68717;53.040;18.488;2023-07-31T00:05:59;6.25;;;2.92;;
53618;SDS011;68717;53.040;18.488;2023-07-31T00:06:12;5.88;;;2.80;;
53618;SDS011;68717;53.040;18.488;2023-07-31T00:06:24;5.68;;;2.90;;
53618;SDS011;68717;53.040;18.488;2023-07-31T00:06:37;6.78;;;2.90;;
53618;SDS011;68717;53.040;18.488;2023-07-31T00:06:50;8.27;;;2.90;;
53618;SDS011;68717;53.040;18.488;2023-07-31T00:07:03;7.97;;;2.92;;
53618;SDS011;68717;53.040;18.488;2023-07-31T00:07:18;7.10;;;3.00;;
53618;SDS011;68717;53.040;18.488;2023-07-31T00:07:31;6.13;;;2.92;;
53618;SDS011;68717;53.040;18.488;2023-07-31T00:07:44;6.53;;;2.83;;
53618;SDS011;68717;53.040;18.488;2023-07-31T00:07:57;6.60;;;2.85;;
53618;SDS011;68717;53.040;18.488;2023-07-31T00:08:11;6.13;;;2.97;;
53618;SDS011;68717;53.040;18.488;2023-07-31T00:08:23;6.80;;;2.90;;
53618;SDS011;68717;53.040;18.488;2023-07-31T00:08:36;6.45;;;2.75;;
53618;SDS011;68717;53.040;18.488;2023-07-31T00:08:49;6.22;;;2.80;;
53618;SDS011;68717;53.040;18.488;2023-07-31T00:09:01;5.50;;;2.80;;
53618;SDS011;68717;53.040;18.488;2023-07-31T00:09:15;6.05;;;2.70;;
53618;SDS011;68717;53.040;18.488;2023-07-31T00:09:28;6.22;;;2.60;;
53618;SDS011;68717;53.040;18.488;2023-07-31T00:09:40;6.30;;;2.60;;
53618;SDS011;68717;53.040;18.488;2023-07-31T00:09:53;5.05;;;2.47;;
53618;SDS011;68717;53.040;18.488;2023-07-31T00:10:06;5.50;;;2.60;;
53618;SDS011;68717;53.040;18.488;2023-07-31T00:10:19;5.78;;;2.70;;
53618;SDS011;68717;53.040;18.488;2023-07-31T00:10:32;6.85;;;2.90;;
53618;SDS011;68717;53.040;18.488;2023-07-31T00:10:45;6.68;;;2.90;;
53618;SDS011;68717;53.040;18.488;2023-07-31T00:10:58;5.57;;;2.70;;
53618;SDS011;68717;53.040;18.488;2023-07-31T00:11:11;5.85;;;2.58;;
53618;SDS011;68717;53.040;18.488;2023-07-31T00:11:23;6.60;;;2.57;;
53618;SDS011;68717;53.040;18.488;2023-07-31T00:11:37;6.32;;;2.60;;
53618;SDS011;68717;53.040;18.488;2023-07-31T00:11:50;5.45;;;2.80;;
53618;SDS011;68717;53.040;18.488;2023-07-31T00:12:03;5.20;;;2.70;;
53618;SDS011;68717;53.040;18.488;2023-07-31T00:12:16;5.22;;;2.53;;
53618;SDS011;68717;53.040;18.488;2023-07-31T00:12:29;5.70;;;2.60;;
53618;SDS011;68717;53.040;18.488;2023-07-31T00:12:42;5.72;;;2.60;;
53618;SDS011;68717;53.040;18.488;2023-07-31T00:12:57;5.53;;;2.60;;
53618;SDS011;68717;53.040;18.488;2023-07-31T00:13:10;5.93;;;2.75;;
53618;SDS011;68717;53.040;18.488;2023-07-31T00:13:24;6.55;;;2.78;;
53618;SDS011;68717;53.040;18.488;2023-07-31T00:13:37;7.65;;;3.00;;
53618;SDS011;68717;53.040;18.488;2023-07-31T00:13:49;6.63;;;2.80;;
53618;SDS011;68717;53.040;18.488;2023-07-31T00:14:02;6.78;;;2.55;;
53618;SDS011;68717;53.040;18.488;2023-07-31T00:14:14;7.63;;;2.60;;
53618;SDS011;68717;53.040;18.488;2023-07-31T00:14:27;7.18;;;2.70;;
53618;SDS011;68717;53.040;18.488;2023-07-31T00:14:40;5.80;;;2.63;;
53618;SDS011;68717;53.040;18.488;2023-07-31T00:14:54;6.53;;;2.60;;
53618;SDS011;68717;53.040;18.488;2023-07-31T00:15:06;6.27;;;2.67;;
53618;SDS011;68717;53.040;18.488;2023-07-31T00:15:19;5.88;;;2.60;;
53618;SDS011;68717;53.040;18.488;2023-07-31T00:15:32;5.40;;;2.42;;
53618;SDS011;68717;53.040;18.488;2023-07-31T00:15:45;5.32;;;2.40;;
53618;SDS011;68717;53.040;18.488;2023-07-31T00:15:58;6.57;;;2.47;;
53618;SDS011;68717;53.040;18.488;2023-07-31T00:16:12;7.82;;;2.50;;
53618;SDS011;68717;53.040;18.488;2023-07-31T00:16:25;7.35;;;2.40;;
53618;SDS011;68717;53.040;18.488;2023-07-31T00:16:39;7.47;;;2.30;;
53618;SDS011;68717;53.040;18.488;2023-07-31T00:16:52;8.23;;;2.50;;
53618;SDS011;68717;53.040;18.488;2023-07-31T00:17:05;7.43;;;2.65;;
53618;SDS011;68717;53.040;18.488;2023-07-31T00:17:17;6.32;;;2.78;;
53618;SDS011;68717;53.040;18.488;2023-07-31T00:17:30;5.85;;;2.80;;
53618;SDS011;68717;53.040;18.488;2023-07-31T00:17:42;5.43;;;2.58;;
53618;SDS011;68717;53.040;18.488;2023-07-31T00:17:55;5.82;;;2.58;;
53618;SDS011;68717;53.040;18.488;2023-07-31T00:18:08;7.28;;;2.65;;
53618;SDS011;68717;53.040;18.488;2023-07-31T00:18:20;8.38;;;2.65;;
53618;SDS011;68717;53.040;18.488;2023-07-31T00:18:33;8.38;;;2.65;;
53618;SDS011;68717;53.040;18.488;2023-07-31T00:18:46;5.20;;;2.42;;
53618;SDS011;68717;53.040;18.488;2023-07-31T00:18:59;5.03;;;2.78;;
53618;SDS011;68717;53.040;18.488;2023-07-31T00:19:12;5.70;;;2.63;;
53618;SDS011;68717;53.040;18.488;2023-07-31T00:19:25;5.93;;;2.55;;
53618;SDS011;68717;53.040;18.488;2023-07-31T00:19:37;5.60;;;2.40;;
53618;SDS011;68717;53.040;18.488;2023-07-31T00:19:50;6.40;;;2.33;;
53618;SDS011;68717;53.040;18.488;2023-07-31T00:20:03;6.57;;;2.38;;
53618;SDS011;68717;53.040;18.488;2023-07-31T00:20:16;6.47;;;2.40;;
53618;SDS011;68717;53.040;18.488;2023-07-31T00:20:29;6.10;;;2.55;;
53618;SDS011;68717;53.040;18.488;2023-07-31T00:20:42;5.35;;;2.55;;
53618;SDS011;68717;53.040;18.488;2023-07-31T00:20:55;5.65;;;2.60;;
53618;SDS011;68717;53.040;18.488;2023-07-31T00:21:07;5.82;;;2.60;;
53618;SDS011;68717;53.040;18.488;2023-07-31T00:21:20;5.15;;;2.45;;
53618;SDS011;68717;53.040;18.488;2023-07-31T00:21:33;6.22;;;2.35;;
53618;SDS011;68717;53.040;18.488;2023-07-31T00:21:45;6.82;;;2.40;;
53618;SDS011;68717;53.040;18.488;2023-07-31T00:21:58;5.50;;;2.50;;
53618;SDS011;68717;53.040;18.488;2023-07-31T00:22:10;5.28;;;2.58;;
53618;SDS011;68717;53.040;18.488;2023-07-31T00:22:23;5.32;;;2.50;;
53618;SDS011;68717;53.040;18.488;2023-07-31T00:22:37;5.47;;;2.33;;
53618;SDS011;68717;53.040;18.488;2023-07-31T00:22:49;5.72;;;2.40;;
53618;SDS011;68717;53.040;18.488;2023-07-31T00:23:02;7.35;;;2.63;;
53618;SDS011;68717;53.040;18.488;2023-07-31T00:23:15;8.32;;;2.70;;
53618;SDS011;68717;53.040;18.488;2023-07-31T00:23:27;7.93;;;2.50;;
53618;SDS011;68717;53.040;18.488;2023-07-31T00:23:40;7.80;;;2.47;;
53618;SDS011;68717;53.040;18.488;2023-07-31T00:23:53;7.45;;;2.47;;
53618;SDS011;68717;53.040;18.488;2023-07-31T00:24:05;7.20;;;2.45;;
53618;SDS011;68717;53.040;18.488;2023-07-31T00:24:19;5.10;;;2.20;;
53618;SDS011;68717;53.040;18.488;2023-07-31T00:24:31;5.65;;;2.15;;
53618;SDS011;68717;53.040;18.488;2023-07-31T00:24:44;6.78;;;2.20;;
53618;SDS011;68717;53.040;18.488;2023-07-31T00:24:57;7.18;;;2.33;;
53618;SDS011;68717;53.040;18.488;2023-07-31T00:25:09;5.70;;;2.50;;
53618;SDS011;68717;53.040;18.488;2023-07-31T00:25:22;5.35;;;2.50;;
53618;SDS011;68717;53.040;18.488;2023-07-31T00:25:35;5.50;;;2.30;;
53618;SDS011;68717;53.040;18.488;2023-07-31T00:25:47;6.85;;;2.40;;
53618;SDS011;68717;53.040;18.488;2023-07-31T00:26:00;7.45;;;2.30;;
53618;SDS011;68717;53.040;18.488;2023-07-31T00:26:14;7.57;;;2.13;;
53618;SDS011;68717;53.040;18.488;2023-07-31T00:26:26;6.53;;;2.10;;
53618;SDS011;68717;53.040;18.488;2023-07-31T00:26:39;5.22;;;2.20;;
53618;SDS011;68717;53.040;18.488;2023-07-31T00:26:52;5.00;;;2.35;;
53618;SDS011;68717;53.040;18.488;2023-07-31T00:27:05;6.13;;;2.55;;
53618;SDS011;68717;53.040;18.488;2023-07-31T00:27:18;6.30;;;2.50;;
53618;SDS011;68717;53.040;18.488;2023-07-31T00:27:30;5.60;;;2.33;;
53618;SDS011;68717;53.040;18.488;2023-07-31T00:27:43;5.07;;;2.30;;
53618;SDS011;68717;53.040;18.488;2023-07-31T00:27:58;5.35;;;2.30;;
53618;SDS011;68717;53.040;18.488;2023-07-31T00:28:10;6.15;;;2.28;;
53618;SDS011;68717;53.040;18.488;2023-07-31T00:28:24;8.32;;;2.25;;
53618;SDS011;68717;53.040;18.488;2023-07-31T00:28:37;7.55;;;2.25;;
53618;SDS011;68717;53.040;18.488;2023-07-31T00:28:49;4.93;;;2.20;;
53618;SDS011;68717;53.040;18.488;2023-07-31T00:29:02;5.07;;;2.25;;
53618;SDS011;68717;53.040;18.488;2023-07-31T00:29:15;5.00;;;2.17;;
53618;SDS011;68717;53.040;18.488;2023-07-31T00:29:27;6.15;;;2.20;;
53618;SDS011;68717;53.040;18.488;2023-07-31T00:29:40;6.57;;;2.15;;
53618;SDS011;68717;53.040;18.488;2023-07-31T00:29:53;5.75;;;2.10;;
53618;SDS011;68717;53.040;18.488;2023-07-31T00:30:06;5.65;;;2.35;;
53618;SDS011;68717;53.040;18.488;2023-07-31T00:30:20;6.00;;;2.40;;
53618;SDS011;68717;53.040;18.488;2023-07-31T00:30:33;5.82;;;2.40;;
53618;SDS011;68717;53.040;18.488;2023-07-31T00:30:45;4.68;;;2.20;;
53618;SDS011;68717;53.040;18.488;2023-07-31T00:30:58;5.90;;;2.30;;
53618;SDS011;68717;53.040;18.488;2023-07-31T00:31:12;7.28;;;2.30;;
53618;SDS011;68717;53.040;18.488;2023-07-31T00:31:25;6.63;;;2.40;;
53618;SDS011;68717;53.040;18.488;2023-07-31T00:31:39;5.75;;;2.50;;
53618;SDS011;68717;53.040;18.488;2023-07-31T00:31:51;4.75;;;2.33;;
53618;SDS011;68717;53.040;18.488;2023-07-31T00:32:04;4.78;;;2.33;;
53618;SDS011;68717;53.040;18.488;2023-07-31T00:32:18;5.38;;;2.40;;
53618;SDS011;68717;53.040;18.488;2023-07-31T00:32:31;5.65;;;2.25;;
53618;SDS011;68717;53.040;18.488;2023-07-31T00:32:44;5.75;;;2.30;;
53618;SDS011;68717;53.040;18.488;2023-07-31T00:32:57;5.80;;;2.50;;
53618;SDS011;68717;53.040;18.488;2023-07-31T00:33:10;5.88;;;2.50;;
53618;SDS011;68717;53.040;18.488;2023-07-31T00:33:22;7.28;;;2.60;;
53618;SDS011;68717;53.040;18.488;2023-07-31T00:33:35;6.82;;;2.50;;
53618;SDS011;68717;53.040;18.488;2023-07-31T00:33:48;6.78;;;2.33;;
53618;SDS011;68717;53.040;18.488;2023-07-31T00:34:00;6.28;;;2.30;;
53618;SDS011;68717;53.040;18.488;2023-07-31T00:34:13;6.57;;;2.47;;
53618;SDS011;68717;53.040;18.488;2023-07-31T00:34:27;5.20;;;2.38;;
53618;SDS011;68717;53.040;18.488;2023-07-31T00:34:39;5.35;;;2.25;;
53618;SDS011;68717;53.040;18.488;2023-07-31T00:34:52;6.30;;;2.20;;
53618;SDS011;68717;53.040;18.488;2023-07-31T00:35:05;7.15;;;2.20;;
53618;SDS011;68717;53.040;18.488;2023-07-31T00:35:18;5.88;;;2.10;;
53618;SDS011;68717;53.040;18.488;2023-07-31T00:35:31;5.97;;;2.10;;
53618;SDS011;68717;53.040;18.488;2023-07-31T00:35:43;5.45;;;2.10;;
53618;SDS011;68717;53.040;18.488;2023-07-31T00:35:56;5.10;;;2.10;;
53618;SDS011;68717;53.040;18.488;2023-07-31T00:36:10;6.07;;;2.20;;
53618;SDS011;68717;53.040;18.488;2023-07-31T00:36:22;5.90;;;2.38;;
53618;SDS011;68717;53.040;18.488;2023-07-31T00:36:35;5.10;;;2.30;;
53618;SDS011;68717;53.040;18.488;2023-07-31T00:36:48;5.03;;;2.40;;
53618;SDS011;68717;53.040;18.488;2023-07-31T00:37:01;5.30;;;2.38;;
53618;SDS011;68717;53.040;18.488;2023-07-31T00:37:14;6.32;;;2.42;;
53618;SDS011;68717;53.040;18.488;2023-07-31T00:37:27;6.78;;;2.40;;
53618;SDS011;68717;53.040;18.488;2023-07-31T00:37:40;7.70;;;2.22;;
53618;SDS011;68717;53.040;18.488;2023-07-31T00:37:52;6.50;;;2.30;;
53618;SDS011;68717;53.040;18.488;2023-07-31T00:38:05;5.90;;;2.40;;
53618;SDS011;68717;53.040;18.488;2023-07-31T00:38:18;5.28;;;2.30;;
53618;SDS011;68717;53.040;18.488;2023-07-31T00:38:31;5.50;;;2.28;;
53618;SDS011;68717;53.040;18.488;2023-07-31T00:38:44;5.57;;;2.35;;
53618;SDS011;68717;53.040;18.488;2023-07-31T00:38:56;5.80;;;2.33;;
53618;SDS011;68717;53.040;18.488;2023-07-31T00:39:09;6.55;;;2.30;;
53618;SDS011;68717;53.040;18.488;2023-07-31T00:39:22;6.07;;;2.10;;
53618;SDS011;68717;53.040;18.488;2023-07-31T00:39:35;6.25;;;2.20;;
53618;SDS011;68717;53.040;18.488;2023-07-31T00:39:49;5.90;;;2.40;;
53618;SDS011;68717;53.040;18.488;2023-07-31T00:40:01;5.22;;;2.35;;
53618;SDS011;68717;53.040;18.488;2023-07-31T00:40:16;5.15;;;2.15;;
53618;SDS011;68717;53.040;18.488;2023-07-31T00:40:28;5.50;;;2.03;;
53618;SDS011;68717;53.040;18.488;2023-07-31T00:40:41;5.88;;;2.13;;
53618;SDS011;68717;53.040;18.488;2023-07-31T00:40:53;5.65;;;2.20;;
53618;SDS011;68717;53.040;18.488;2023-07-31T00:41:06;5.55;;;2.30;;
53618;SDS011;68717;53.040;18.488;2023-07-31T00:41:20;4.93;;;2.10;;
53618;SDS011;68717;53.040;18.488;2023-07-31T00:41:32;4.38;;;1.98;;
53618;SDS011;68717;53.040;18.488;2023-07-31T00:41:45;4.90;;;1.95;;
53618;SDS011;68717;53.040;18.488;2023-07-31T00:41:58;6.30;;;2.10;;
53618;SDS011;68717;53.040;18.488;2023-07-31T00:42:10;6.95;;;2.30;;
53618;SDS011;68717;53.040;18.488;2023-07-31T00:42:24;6.38;;;2.30;;
53618;SDS011;68717;53.040;18.488;2023-07-31T00:42:37;6.47;;;2.30;;
53618;SDS011;68717;53.040;18.488;2023-07-31T00:42:49;6.97;;;2.40;;
53618;SDS011;68717;53.040;18.488;2023-07-31T00:43:03;6.40;;;2.30;;
53618;SDS011;68717;53.040;18.488;2023-07-31T00:43:16;6.35;;;2.30;;
53618;SDS011;68717;53.040;18.488;2023-07-31T00:43:29;5.55;;;2.25;;
53618;SDS011;68717;53.040;18.488;2023-07-31T00:43:41;5.30;;;2.10;;
53618;SDS011;68717;53.040;18.488;2023-07-31T00:43:54;5.22;;;2.03;;
53618;SDS011;68717;53.040;18.488;2023-07-31T00:44:06;5.15;;;2.13;;
53618;SDS011;68717;53.040;18.488;2023-07-31T00:44:19;4.95;;;2.20;;
53618;SDS011;68717;53.040;18.488;2023-07-31T00:44:32;4.93;;;2.20;;
53618;SDS011;68717;53.040;18.488;2023-07-31T00:44:45;5.55;;;2.20;;
53618;SDS011;68717;53.040;18.488;2023-07-31T00:44:58;5.40;;;2.25;;
53618;SDS011;68717;53.040;18.488;2023-07-31T00:45:11;4.88;;;2.40;;
53618;SDS011;68717;53.040;18.488;2023-07-31T00:45:23;5.13;;;2.20;;
53618;SDS011;68717;53.040;18.488;2023-07-31T00:45:36;5.43;;;2.00;;
53618;SDS011;68717;53.040;18.488;2023-07-31T00:45:49;5.53;;;2.05;;
53618;SDS011;68717;53.040;18.488;2023-07-31T00:46:02;5.25;;;2.10;;
53618;SDS011;68717;53.040;18.488;2023-07-31T00:46:16;5.15;;;2.20;;
53618;SDS011;68717;53.040;18.488;2023-07-31T00:46:30;5.25;;;2.20;;
53618;SDS011;68717;53.040;18.488;2023-07-31T00:46:43;6.03;;;2.20;;
53618;SDS011;68717;53.040;18.488;2023-07-31T00:46:56;6.20;;;2.30;;
53618;SDS011;68717;53.040;18.488;2023-07-31T00:47:11;6.03;;;2.30;;
53618;SDS011;68717;53.040;18.488;2023-07-31T00:47:23;5.55;;;2.22;;
53618;SDS011;68717;53.040;18.488;2023-07-31T00:47:36;5.55;;;2.30;;
53618;SDS011;68717;53.040;18.488;2023-07-31T00:47:49;5.70;;;2.20;;
53618;SDS011;68717;53.040;18.488;2023-07-31T00:48:02;6.78;;;2.10;;
53618;SDS011;68717;53.040;18.488;2023-07-31T00:48:18;6.10;;;2.10;;
53618;SDS011;68717;53.040;18.488;2023-07-31T00:48:31;5.30;;;2.10;;
53618;SDS011;68717;53.040;18.488;2023-07-31T00:48:45;5.28;;;2.10;;
53618;SDS011;68717;53.040;18.488;2023-07-31T00:48:58;5.10;;;2.08;;
53618;SDS011;68717;53.040;18.488;2023-07-31T00:49:11;4.53;;;2.03;;
53618;SDS011;68717;53.040;18.488;2023-07-31T00:49:24;5.32;;;2.20;;
53618;SDS011;68717;53.040;18.488;2023-07-31T00:49:38;6.25;;;2.00;;
53618;SDS011;68717;53.040;18.488;2023-07-31T00:49:51;6.40;;;1.90;;
53618;SDS011;68717;53.040;18.488;2023-07-31T00:50:04;6.03;;;2.00;;
53618;SDS011;68717;53.040;18.488;2023-07-31T00:50:18;5.45;;;2.00;;
53618;SDS011;68717;53.040;18.488;2023-07-31T00:50:31;5.05;;;2.05;;
53618;SDS011;68717;53.040;18.488;2023-07-31T00:50:45;5.93;;;2.30;;
53618;SDS011;68717;53.040;18.488;2023-07-31T00:50:58;7.15;;;2.50;;
53618;SDS011;68717;53.040;18.488;2023-07-31T00:51:11;8.55;;;2.50;;
53618;SDS011;68717;53.040;18.488;2023-07-31T00:51:24;6.95;;;2.40;;
53618;SDS011;68717;53.040;18.488;2023-07-31T00:51:37;5.90;;;2.50;;
53618;SDS011;68717;53.040;18.488;2023-07-31T00:51:49;6.30;;;2.47;;
53618;SDS011;68717;53.040;18.488;2023-07-31T00:52:02;6.30;;;2.33;;
53618;SDS011;68717;53.040;18.488;2023-07-31T00:52:16;6.68;;;2.30;;
53618;SDS011;68717;53.040;18.488;2023-07-31T00:52:30;6.35;;;2.42;;
53618;SDS011;68717;53.040;18.488;2023-07-31T00:52:43;5.50;;;2.55;;
53618;SDS011;68717;53.040;18.488;2023-07-31T00:52:55;6.07;;;2.50;;
53618;SDS011;68717;53.040;18.488;2023-07-31T00:53:08;5.68;;;2.28;;
53618;SDS011;68717;53.040;18.488;2023-07-31T00:53:21;6.10;;;2.35;;
53618;SDS011;68717;53.040;18.488;2023-07-31T00:53:34;6.82;;;2.40;;
53618;SDS011;68717;53.040;18.488;2023-07-31T00:53:46;9.48;;;2.65;;
53618;SDS011;68717;53.040;18.488;2023-07-31T00:53:59;8.98;;;2.65;;
53618;SDS011;68717;53.040;18.488;2023-07-31T00:54:12;7.28;;;2.42;;
53618;SDS011;68717;53.040;18.488;2023-07-31T00:54:26;7.03;;;2.40;;
53618;SDS011;68717;53.040;18.488;2023-07-31T00:54:39;6.03;;;2.50;;
53618;SDS011;68717;53.040;18.488;2023-07-31T00:54:51;5.53;;;2.33;;
53618;SDS011;68717;53.040;18.488;2023-07-31T00:55:05;6.28;;;2.33;;
53618;SDS011;68717;53.040;18.488;2023-07-31T00:55:18;6.32;;;2.40;;
53618;SDS011;68717;53.040;18.488;2023-07-31T00:55:31;5.57;;;2.20;;
53618;SDS011;68717;53.040;18.488;2023-07-31T00:55:43;5.53;;;2.28;;
53618;SDS011;68717;53.040;18.488;2023-07-31T00:55:57;5.53;;;2.40;;
53618;SDS011;68717;53.040;18.488;2023-07-31T00:56:10;6.65;;;2.50;;
53618;SDS011;68717;53.040;18.488;2023-07-31T00:56:23;6.65;;;2.50;;
53618;SDS011;68717;53.040;18.488;2023-07-31T00:56:38;7.15;;;2.70;;
53618;SDS011;68717;53.040;18.488;2023-07-31T00:56:52;6.75;;;2.90;;
53618;SDS011;68717;53.040;18.488;2023-07-31T00:57:06;5.50;;;2.58;;
53618;SDS011;68717;53.040;18.488;2023-07-31T00:57:20;4.97;;;2.42;;
53618;SDS011;68717;53.040;18.488;2023-07-31T00:57:33;5.60;;;2.70;;
53618;SDS011;68717;53.040;18.488;2023-07-31T00:57:48;5.28;;;2.50;;
53618;SDS011;68717;53.040;18.488;2023-07-31T00:58:02;4.78;;;2.42;;
53618;SDS011;68717;53.040;18.488;2023-07-31T00:58:15;5.72;;;2.40;;
53618;SDS011;68717;53.040;18.488;2023-07-31T00:58:28;5.90;;;2.40;;
53618;SDS011;68717;53.040;18.488;2023-07-31T00:58:41;5.47;;;2.33;;
53618;SDS011;68717;53.040;18.488;2023-07-31T00:58:54;5.70;;;2.30;;
53618;SDS011;68717;53.040;18.488;2023-07-31T00:59:07;5.25;;;2.33;;
53618;SDS011;68717;53.040;18.488;2023-07-31T00:59:20;6.72;;;2.58;;
53618;SDS011;68717;53.040;18.488;2023-07-31T00:59:32;7.63;;;2.60;;
53618;SDS011;68717;53.040;18.488;2023-07-31T00:59:45;6.50;;;2.50;;
53618;SDS011;68717;53.040;18.488;2023-07-31T00:59:58;7.38;;;2.58;;
53618;SDS011;68717;53.040;18.488;2023-07-31T01:00:11;7.60;;;2.70;;
53618;SDS011;68717;53.040;18.488;2023-07-31T01:00:24;7.00;;;2.83;;
53618;SDS011;68717;53.040;18.488;2023-07-31T01:00:38;5.22;;;2.60;;
53618;SDS011;68717;53.040;18.488;2023-07-31T01:00:50;5.38;;;2.60;;
53618;SDS011;68717;53.040;18.488;2023-07-31T01:01:03;5.70;;;2.58;;
53618;SDS011;68717;53.040;18.488;2023-07-31T01:01:17;5.57;;;2.40;;
53618;SDS011;68717;53.040;18.488;2023-07-31T01:01:30;5.68;;;2.33;;
53618;SDS011;68717;53.040;18.488;2023-07-31T01:01:42;6.00;;;2.47;;
53618;SDS011;68717;53.040;18.488;2023-07-31T01:01:55;6.15;;;2.50;;
53618;SDS011;68717;53.040;18.488;2023-07-31T01:02:08;5.60;;;2.42;;
53618;SDS011;68717;53.040;18.488;2023-07-31T01:02:21;5.38;;;2.45;;
53618;SDS011;68717;53.040;18.488;2023-07-31T01:02:34;6.78;;;2.45;;
53618;SDS011;68717;53.040;18.488;2023-07-31T01:02:48;6.80;;;2.40;;
53618;SDS011;68717;53.040;18.488;2023-07-31T01:03:03;6.25;;;2.60;;
53618;SDS011;68717;53.040;18.488;2023-07-31T01:03:16;6.22;;;2.53;;
53618;SDS011;68717;53.040;18.488;2023-07-31T01:03:29;6.20;;;2.40;;
53618;SDS011;68717;53.040;18.488;2023-07-31T01:03:42;6.60;;;2.40;;
53618;SDS011;68717;53.040;18.488;2023-07-31T01:03:56;5.60;;;2.35;;
53618;SDS011;68717;53.040;18.488;2023-07-31T01:04:09;5.85;;;2.63;;
53618;SDS011;68717;53.040;18.488;2023-07-31T01:04:23;6.68;;;2.70;;
53618;SDS011;68717;53.040;18.488;2023-07-31T01:04:36;6.97;;;2.50;;
53618;SDS011;68717;53.040;18.488;2023-07-31T01:04:49;6.57;;;2.47;;
53618;SDS011;68717;53.040;18.488;2023-07-31T01:05:02;6.60;;;2.40;;
53618;SDS011;68717;53.040;18.488;2023-07-31T01:05:16;6.07;;;2.30;;
53618;SDS011;68717;53.040;18.488;2023-07-31T01:05:33;6.32;;;2.47;;
53618;SDS011;68717;53.040;18.488;2023-07-31T01:05:54;8.05;;;2.70;;
53618;SDS011;68717;53.040;18.488;2023-07-31T01:06:18;8.25;;;2.50;;
53618;SDS011;68717;53.040;18.488;2023-07-31T01:06:43;6.78;;;2.65;;
53618;SDS011;68717;53.040;18.488;2023-07-31T01:07:02;5.65;;;2.45;;
53618;SDS011;68717;53.040;18.488;2023-07-31T01:07:25;6.40;;;2.55;;
53618;SDS011;68717;53.040;18.488;2023-07-31T01:07:45;5.75;;;2.50;;
53618;SDS011;68717;53.040;18.488;2023-07-31T01:08:08;5.65;;;2.50;;
53618;SDS011;68717;53.040;18.488;2023-07-31T01:08:32;6.93;;;2.60;;
53618;SDS011;68717;53.040;18.488;2023-07-31T01:08:57;6.18;;;2.60;;
53618;SDS011;68717;53.040;18.488;2023-07-31T01:09:16;6.05;;;2.40;;
53618;SDS011;68717;53.040;18.488;2023-07-31T01:09:43;6.82;;;2.33;;
53618;SDS011;68717;53.040;18.488;2023-07-31T01:10:02;7.35;;;2.40;;
53618;SDS011;68717;53.040;18.488;2023-07-31T01:10:21;7.80;;;2.45;;
53618;SDS011;68717;53.040;18.488;2023-07-31T01:10:37;7.43;;;2.40;;
53618;SDS011;68717;53.040;18.488;2023-07-31T01:10:59;7.00;;;2.40;;
53618;SDS011;68717;53.040;18.488;2023-07-31T01:11:19;7.75;;;2.53;;
53618;SDS011;68717;53.040;18.488;2023-07-31T01:11:41;5.72;;;2.33;;
53618;SDS011;68717;53.040;18.488;2023-07-31T01:12:00;5.40;;;2.17;;
53618;SDS011;68717;53.040;18.488;2023-07-31T01:12:15;6.03;;;2.42;;
53618;SDS011;68717;53.040;18.488;2023-07-31T01:12:28;5.82;;;2.40;;
53618;SDS011;68717;53.040;18.488;2023-07-31T01:12:43;5.63;;;2.42;;
53618;SDS011;68717;53.040;18.488;2023-07-31T01:12:57;5.53;;;2.40;;
53618;SDS011;68717;53.040;18.488;2023-07-31T01:13:10;5.68;;;2.22;;
53618;SDS011;68717;53.040;18.488;2023-07-31T01:13:24;6.10;;;2.30;;
53618;SDS011;68717;53.040;18.488;2023-07-31T01:13:37;5.72;;;2.40;;
53618;SDS011;68717;53.040;18.488;2023-07-31T01:13:50;6.05;;;2.40;;
53618;SDS011;68717;53.040;18.488;2023-07-31T01:14:02;6.10;;;2.38;;
53618;SDS011;68717;53.040;18.488;2023-07-31T01:14:16;5.10;;;2.25;;
53618;SDS011;68717;53.040;18.488;2023-07-31T01:14:29;5.05;;;2.20;;
53618;SDS011;68717;53.040;18.488;2023-07-31T01:14:50;5.85;;;2.35;;
53618;SDS011;68717;53.040;18.488;2023-07-31T01:15:04;7.88;;;2.28;;
53618;SDS011;68717;53.040;18.488;2023-07-31T01:15:18;7.40;;;2.20;;
53618;SDS011;68717;53.040;18.488;2023-07-31T01:15:31;7.40;;;2.30;;
53618;SDS011;68717;53.040;18.488;2023-07-31T01:15:43;6.93;;;2.30;;
53618;SDS011;68717;53.040;18.488;2023-07-31T01:15:56;6.30;;;2.20;;
53618;SDS011;68717;53.040;18.488;2023-07-31T01:16:09;6.47;;;2.30;;
53618;SDS011;68717;53.040;18.488;2023-07-31T01:16:24;6.03;;;2.35;;
53618;SDS011;68717;53.040;18.488;2023-07-31T01:16:37;6.07;;;2.30;;
53618;SDS011;68717;53.040;18.488;2023-07-31T01:16:50;6.32;;;2.42;;
53618;SDS011;68717;53.040;18.488;2023-07-31T01:17:03;6.55;;;2.53;;
53618;SDS011;68717;53.040;18.488;2023-07-31T01:17:16;5.65;;;2.30;;
53618;SDS011;68717;53.040;18.488;2023-07-31T01:17:29;5.60;;;2.20;;
53618;SDS011;68717;53.040;18.488;2023-07-31T01:17:42;6.82;;;2.30;;
53618;SDS011;68717;53.040;18.488;2023-07-31T01:17:56;6.38;;;2.38;;
53618;SDS011;68717;53.040;18.488;2023-07-31T01:18:08;5.80;;;2.30;;
53618;SDS011;68717;53.040;18.488;2023-07-31T01:18:21;5.78;;;2.15;;
53618;SDS011;68717;53.040;18.488;2023-07-31T01:18:34;5.60;;;2.10;;
53618;SDS011;68717;53.040;18.488;2023-07-31T01:18:46;5.38;;;2.10;;
53618;SDS011;68717;53.040;18.488;2023-07-31T01:18:59;5.25;;;2.20;;
53618;SDS011;68717;53.040;18.488;2023-07-31T01:19:12;5.53;;;2.35;;
53618;SDS011;68717;53.040;18.488;2023-07-31T01:19:27;5.53;;;2.35;;
53618;SDS011;68717;53.040;18.488;2023-07-31T01:19:42;4.80;;;2.20;;
53618;SDS011;68717;53.040;18.488;2023-07-31T01:19:56;4.80;;;2.17;;
53618;SDS011;68717;53.040;18.488;2023-07-31T01:20:13;4.70;;;2.13;;
53618;SDS011;68717;53.040;18.488;2023-07-31T01:20:29;5.28;;;2.20;;
53618;SDS011;68717;53.040;18.488;2023-07-31T01:20:42;8.82;;;2.30;;
53618;SDS011;68717;53.040;18.488;2023-07-31T01:21:07;5.22;;;2.10;;